Time;durP1;ratioP1;P1;durP2;ratioP2;P2;SDS_P1;SDS_P2;PMS_P1;PMS_P2;Temp;Humidity;BMP_temperature;BMP_pressure;BME280_temperature;BME280_humidity;BME280_pressure;Samples;Min_cycle;Max_cycle;Signal;HPM_P1;HPM_P2
2023/03/21 00:00:46;;;;;;;5.25;2.88;;;11.40;99.90;;;;;;5012428;28;20217;-67
2023/03/21 00:03:13;;;;;;;3.20;2.90;;;11.30;99.90;;;;;;5011439;28;20679;-67
2023/03/21 00:05:40;;;;;;;3.22;2.90;;;11.50;99.90;;;;;;5009803;28;20191;-67
2023/03/21 00:08:06;;;;;;;4.20;2.85;;;11.20;99.90;;;;;;5010242;28;20285;-67
2023/03/21 00:10:31;;;;;;;4.33;3.93;;;11.30;99.90;;;;;;5009159;28;20332;-67
2023/03/21 00:12:57;;;;;;;3.23;2.93;;;11.20;99.90;;;;;;5012156;28;20301;-67
2023/03/21 00:15:28;;;;;;;3.30;3.00;;;11.40;99.90;;;;;;5011474;28;20190;-68
2023/03/21 00:18:02;;;;;;;6.78;3.03;;;11.20;99.90;;;;;;5025816;28;20194;-67
2023/03/21 00:20:29;;;;;;;2.78;2.53;;;11.30;99.90;;;;;;5010868;28;20229;-68
2023/03/21 00:22:54;;;;;;;2.78;2.58;;;11.20;99.90;;;;;;5011740;28;20228;-67
2023/03/21 00:25:20;;;;;;;3.60;3.30;;;11.40;99.90;;;;;;5009395;28;20640;-67
2023/03/21 00:27:46;;;;;;;3.40;3.03;;;11.20;99.90;;;;;;5010864;28;20612;-67
2023/03/21 00:30:12;;;;;;;2.87;2.67;;;11.40;99.90;;;;;;5012796;28;20199;-67
2023/03/21 00:32:37;;;;;;;5.47;2.72;;;11.70;99.90;;;;;;5011493;28;20210;-67
2023/03/21 00:35:03;;;;;;;2.83;2.63;;;11.30;99.90;;;;;;5011180;28;20206;-67
2023/03/21 00:37:29;;;;;;;2.90;2.70;;;11.20;99.90;;;;;;5010451;28;20214;-67
2023/03/21 00:39:55;;;;;;;2.50;2.30;;;11.50;99.90;;;;;;5009898;28;20458;-67
2023/03/21 00:42:20;;;;;;;7.53;3.00;;;11.90;99.90;;;;;;5011516;28;20485;-67
2023/03/21 00:44:46;;;;;;;4.27;2.47;;;11.20;99.90;;;;;;5010805;28;20267;-67
2023/03/21 00:47:12;;;;;;;2.63;2.43;;;11.70;99.90;;;;;;5011313;28;21541;-67
2023/03/21 00:49:38;;;;;;;2.65;2.45;;;11.20;99.90;;;;;;5009364;28;20207;-67
2023/03/21 00:52:06;;;;;;;3.60;2.70;;;11.30;99.90;;;;;;5010705;28;20714;-67
2023/03/21 00:54:33;;;;;;;3.17;2.30;;;11.30;99.90;;;;;;5009694;28;21068;-67
2023/03/21 00:57:00;;;;;;;3.85;2.45;;;11.40;99.90;;;;;;5010603;28;20243;-67
2023/03/21 00:59:25;;;;;;;2.85;2.65;;;11.50;99.90;;;;;;5010151;28;20193;-67
2023/03/21 01:01:52;;;;;;;2.73;2.47;;;11.30;99.90;;;;;;5010871;28;20205;-67
2023/03/21 01:04:18;;;;;;;2.95;2.58;;;11.10;99.90;;;;;;5009468;28;20243;-67
2023/03/21 01:06:44;;;;;;;3.30;2.70;;;10.90;99.90;;;;;;5010474;28;20179;-67
2023/03/21 01:09:21;;;;;;;3.25;2.88;;;11.40;99.90;;;;;;5010770;28;20800;-67
2023/03/21 01:11:48;;;;;;;2.60;2.40;;;11.10;99.90;;;;;;5009776;28;20256;-67
2023/03/21 01:14:15;;;;;;;2.83;2.60;;;11.00;99.90;;;;;;5012003;28;20194;-67
2023/03/21 01:16:42;;;;;;;3.40;2.60;;;10.90;99.90;;;;;;5009960;28;20222;-67
2023/03/21 01:19:11;;;;;;;3.75;2.80;;;11.20;99.90;;;;;;5004017;28;20204;-67
2023/03/21 01:21:37;;;;;;;2.60;2.40;;;11.30;99.90;;;;;;5012408;28;20210;-67
2023/03/21 01:24:03;;;;;;;3.03;2.50;;;11.20;99.90;;;;;;5009774;28;20642;-67
2023/03/21 01:26:29;;;;;;;2.42;2.22;;;11.20;99.90;;;;;;5009734;28;20241;-67
2023/03/21 01:28:55;;;;;;;3.57;2.60;;;11.00;99.90;;;;;;5010455;28;20182;-68
2023/03/21 01:31:20;;;;;;;3.20;2.67;;;11.30;99.90;;;;;;5009954;28;20229;-67
2023/03/21 01:33:46;;;;;;;3.00;2.60;;;11.10;99.90;;;;;;5008541;28;20212;-67
2023/03/21 01:36:23;;;;;;;2.60;2.33;;;10.60;99.90;;;;;;5011146;28;20196;-67
2023/03/21 01:38:50;;;;;;;2.20;2.00;;;11.10;99.90;;;;;;5042813;28;20879;-67
2023/03/21 01:41:29;;;;;;;3.20;2.80;;;10.90;99.90;;;;;;5007885;28;20210;-67
2023/03/21 01:43:55;;;;;;;4.03;2.55;;;11.00;99.90;;;;;;5011343;28;20210;-67
2023/03/21 01:46:22;;;;;;;2.65;2.45;;;10.90;99.90;;;;;;5010388;28;20281;-67
2023/03/21 01:49:13;;;;;;;2.42;2.22;;;11.10;99.90;;;;;;5007840;28;20197;-67
2023/03/21 01:51:44;;;;;;;2.85;2.40;;;11.10;99.90;;;;;;5020951;28;20790;-67
2023/03/21 01:54:15;;;;;;;2.80;2.60;;;11.00;99.90;;;;;;5006589;28;20182;-67
2023/03/21 01:56:45;;;;;;;3.20;3.00;;;11.20;99.90;;;;;;5007254;28;20189;-67
2023/03/21 01:59:20;;;;;;;3.65;2.67;;;11.00;99.90;;;;;;5006822;28;20210;-67
2023/03/21 02:01:46;;;;;;;3.17;2.75;;;11.10;99.90;;;;;;5010215;28;20260;-67
2023/03/21 02:04:12;;;;;;;3.90;2.80;;;11.30;99.90;;;;;;5007764;28;20213;-65
2023/03/21 02:07:01;;;;;;;2.77;2.57;;;11.00;99.90;;;;;;5008058;28;20209;-67
2023/03/21 02:09:31;;;;;;;3.17;2.70;;;11.00;99.90;;;;;;5009003;28;20341;-67
2023/03/21 02:11:57;;;;;;;2.22;2.10;;;11.20;99.90;;;;;;5008045;28;20643;-67
2023/03/21 02:14:23;;;;;;;3.75;2.55;;;11.10;99.90;;;;;;5012041;28;20186;-67
2023/03/21 02:16:58;;;;;;;2.60;2.40;;;11.10;99.90;;;;;;5010261;28;20185;-67
2023/03/21 02:20:07;;;;;;;2.90;2.60;;;11.10;99.90;;;;;;5009218;28;20547;-67
2023/03/21 02:23:04;;;;;;;2.95;2.20;;;11.10;99.90;;;;;;5008784;28;20544;-67
2023/03/21 02:25:35;;;;;;;3.00;2.80;;;11.00;99.90;;;;;;5005125;28;20184;-67
2023/03/21 02:28:16;;;;;;;3.50;2.80;;;10.90;99.90;;;;;;5012566;28;20200;-67
2023/03/21 02:30:56;;;;;;;4.10;2.40;;;11.00;99.90;;;;;;5009931;28;20218;-67
2023/03/21 02:33:40;;;;;;;2.63;2.42;;;10.90;99.90;;;;;;5007606;28;20212;-67
2023/03/21 02:36:16;;;;;;;2.95;2.53;;;10.90;99.90;;;;;;5007836;28;20956;-67
2023/03/21 02:38:42;;;;;;;2.30;2.10;;;11.00;99.90;;;;;;5007832;28;20186;-67
2023/03/21 02:41:18;;;;;;;3.37;2.17;;;10.80;99.90;;;;;;5007664;28;20244;-67
2023/03/21 02:43:47;;;;;;;3.10;2.58;;;10.90;99.90;;;;;;5024060;28;20216;-67
2023/03/21 02:46:14;;;;;;;2.60;2.40;;;10.70;99.90;;;;;;5009825;28;20236;-67
2023/03/21 02:48:54;;;;;;;2.50;2.30;;;11.20;99.90;;;;;;5006335;28;20221;-67
2023/03/21 02:51:22;;;;;;;4.28;4.00;;;10.70;99.90;;;;;;5007660;28;20251;-67
2023/03/21 02:53:58;;;;;;;2.70;2.50;;;10.90;99.90;;;;;;5008351;28;20181;-67
2023/03/21 02:56:24;;;;;;;3.08;2.78;;;10.70;99.90;;;;;;5006707;28;20699;-67
2023/03/21 02:58:51;;;;;;;2.83;2.63;;;11.10;99.90;;;;;;5007759;28;20190;-67
2023/03/21 03:01:16;;;;;;;4.10;2.50;;;10.80;99.90;;;;;;5008346;28;20317;-67
2023/03/21 03:03:42;;;;;;;3.40;2.70;;;10.60;99.90;;;;;;5007850;28;20210;-67
2023/03/21 03:06:20;;;;;;;3.17;2.97;;;10.70;99.90;;;;;;5009267;28;20272;-67
2023/03/21 03:09:08;;;;;;;2.47;2.28;;;10.90;99.90;;;;;;5008776;28;20268;-67
2023/03/21 03:11:38;;;;;;;3.13;2.58;;;10.60;99.90;;;;;;5011834;28;20574;-67
2023/03/21 03:14:28;;;;;;;2.88;2.63;;;10.70;99.90;;;;;;5009445;28;20212;-67
2023/03/21 03:17:20;;;;;;;2.85;2.65;;;10.40;99.90;;;;;;5008529;28;20244;-67
2023/03/21 03:20:15;;;;;;;3.42;2.92;;;10.70;99.90;;;;;;5007267;28;20552;-67
2023/03/21 03:22:51;;;;;;;2.70;2.50;;;10.60;99.90;;;;;;5013582;28;20194;-67
2023/03/21 03:25:22;;;;;;;3.90;2.50;;;10.80;99.90;;;;;;5037766;28;20212;-67
2023/03/21 03:27:51;;;;;;;2.50;2.20;;;10.60;99.90;;;;;;5008702;28;20209;-67
2023/03/21 03:30:17;;;;;;;3.60;2.85;;;10.90;99.90;;;;;;5008713;28;20297;-67
2023/03/21 03:32:51;;;;;;;3.63;3.33;;;10.90;99.90;;;;;;5009071;28;20275;-67
2023/03/21 03:35:19;;;;;;;3.47;2.75;;;10.40;99.90;;;;;;5005300;28;20442;-67
2023/03/21 03:37:52;;;;;;;3.70;3.22;;;10.50;99.90;;;;;;5025779;28;20213;-67
2023/03/21 03:40:42;;;;;;;2.65;2.35;;;10.70;99.90;;;;;;5008490;28;22074;-67
2023/03/21 03:43:14;;;;;;;3.25;2.95;;;10.80;99.90;;;;;;5012418;28;20571;-67
2023/03/21 03:45:47;;;;;;;4.05;2.75;;;10.50;99.90;;;;;;5011321;28;20182;-68
2023/03/21 03:48:19;;;;;;;3.17;2.88;;;10.40;99.90;;;;;;5007216;28;20189;-67
2023/03/21 03:51:06;;;;;;;2.90;2.60;;;10.50;99.90;;;;;;5004071;28;20284;-67
2023/03/21 03:53:43;;;;;;;3.15;2.95;;;10.60;99.90;;;;;;5011840;28;20233;-67
2023/03/21 03:56:12;;;;;;;3.78;2.70;;;10.50;99.90;;;;;;5008120;28;20209;-67
2023/03/21 03:58:38;;;;;;;3.45;2.80;;;10.60;99.90;;;;;;5010442;28;20182;-67
2023/03/21 04:01:06;;;;;;;5.10;2.90;;;10.60;99.90;;;;;;5009149;28;20213;-67
2023/03/21 04:03:34;;;;;;;3.42;2.90;;;10.60;99.90;;;;;;5011757;28;20268;-67
2023/03/21 04:06:00;;;;;;;3.35;3.05;;;10.50;99.90;;;;;;5011577;28;20176;-67
2023/03/21 04:08:25;;;;;;;2.97;2.67;;;11.00;99.90;;;;;;5010774;28;20221;-67
2023/03/21 04:10:51;;;;;;;2.93;2.73;;;10.50;99.90;;;;;;5010891;28;20228;-67
2023/03/21 04:13:17;;;;;;;3.93;3.50;;;10.70;99.90;;;;;;5011462;28;20190;-67
2023/03/21 04:15:44;;;;;;;4.90;3.30;;;10.70;99.90;;;;;;5011550;28;20263;-67
2023/03/21 04:18:09;;;;;;;3.33;3.03;;;10.70;99.90;;;;;;5041496;28;20301;-68
2023/03/21 04:20:35;;;;;;;4.17;3.47;;;10.70;99.90;;;;;;5008772;28;20744;-67
2023/03/21 04:23:01;;;;;;;6.00;3.60;;;10.70;99.90;;;;;;5011108;28;20260;-67
2023/03/21 04:25:27;;;;;;;4.40;4.10;;;10.80;99.90;;;;;;5008799;28;20447;-67
2023/03/21 04:27:54;;;;;;;2.97;2.77;;;10.70;99.90;;;;;;5010351;28;20436;-67
2023/03/21 04:30:23;;;;;;;3.20;2.90;;;10.60;99.90;;;;;;5009679;28;20599;-68
2023/03/21 04:32:52;;;;;;;4.25;3.20;;;10.80;99.90;;;;;;5007303;28;20178;-67
2023/03/21 04:35:19;;;;;;;3.63;3.30;;;10.70;99.90;;;;;;5007354;28;20189;-67
2023/03/21 04:37:45;;;;;;;6.00;2.95;;;10.50;99.90;;;;;;5008441;28;20197;-67
2023/03/21 04:40:11;;;;;;;2.80;2.60;;;10.70;99.90;;;;;;5009612;28;20204;-68
2023/03/21 04:42:37;;;;;;;3.08;2.78;;;10.70;99.90;;;;;;5008351;28;20659;-67
2023/03/21 04:45:03;;;;;;;3.00;2.70;;;10.40;99.90;;;;;;5010245;28;20207;-65
2023/03/21 04:47:28;;;;;;;4.13;3.72;;;10.40;99.90;;;;;;5010725;28;20193;-67
2023/03/21 04:49:55;;;;;;;4.53;3.93;;;10.40;99.90;;;;;;5006794;28;20749;-67
2023/03/21 04:52:21;;;;;;;3.78;3.08;;;10.00;99.90;;;;;;5010039;28;20200;-67
2023/03/21 04:54:47;;;;;;;4.03;3.60;;;9.60;99.90;;;;;;5009381;28;20563;-67
2023/03/21 04:57:13;;;;;;;5.87;3.50;;;9.80;99.90;;;;;;5008716;28;20191;-67
2023/03/21 04:59:38;;;;;;;5.20;3.47;;;9.70;99.90;;;;;;5011187;28;20193;-67
2023/03/21 05:02:04;;;;;;;3.47;3.17;;;9.80;99.90;;;;;;5011496;28;20192;-67
2023/03/21 05:04:30;;;;;;;3.43;3.13;;;9.80;99.90;;;;;;5010208;28;20222;-67
2023/03/21 05:06:56;;;;;;;5.07;3.83;;;9.70;99.90;;;;;;5010172;28;20418;-67
2023/03/21 05:09:22;;;;;;;3.37;3.10;;;9.60;99.90;;;;;;5010787;28;20268;-65
2023/03/21 05:11:49;;;;;;;3.65;3.10;;;9.50;99.90;;;;;;5007597;28;20259;-65
2023/03/21 05:14:18;;;;;;;3.63;3.33;;;9.30;99.90;;;;;;5005388;28;20184;-66
2023/03/21 05:16:47;;;;;;;5.00;4.00;;;9.40;99.90;;;;;;4998451;28;20193;-65
2023/03/21 05:19:14;;;;;;;3.90;3.50;;;9.60;99.90;;;;;;5040918;28;20180;-66
2023/03/21 05:21:40;;;;;;;3.65;3.13;;;9.00;99.90;;;;;;5004332;28;20204;-66
2023/03/21 05:24:11;;;;;;;3.80;3.40;;;9.50;99.90;;;;;;5010586;28;20219;-66
2023/03/21 05:26:38;;;;;;;4.93;3.60;;;9.80;99.90;;;;;;5002570;28;20702;-66
2023/03/21 05:29:04;;;;;;;3.75;3.22;;;8.90;99.90;;;;;;5007519;28;20556;-66
2023/03/21 05:31:29;;;;;;;4.40;3.50;;;9.90;99.90;;;;;;5008589;28;20573;-66
2023/03/21 05:33:55;;;;;;;3.70;3.40;;;9.60;99.90;;;;;;5009070;28;20188;-66
2023/03/21 05:36:20;;;;;;;5.27;3.70;;;9.40;99.90;;;;;;5001494;28;20195;-65
2023/03/21 05:38:46;;;;;;;3.87;3.37;;;9.20;99.90;;;;;;5010143;28;20189;-69
2023/03/21 05:41:13;;;;;;;4.73;3.40;;;9.50;99.90;;;;;;5005889;28;20305;-68
2023/03/21 05:43:39;;;;;;;3.65;3.35;;;9.50;99.90;;;;;;5008488;28;20362;-66
2023/03/21 05:46:05;;;;;;;4.20;3.37;;;9.50;99.90;;;;;;5010540;28;20302;-67
2023/03/21 05:48:30;;;;;;;5.20;4.03;;;9.50;99.90;;;;;;5007033;28;20952;-66
2023/03/21 05:50:56;;;;;;;4.70;3.87;;;9.40;99.90;;;;;;5005069;28;20464;-66
2023/03/21 05:53:22;;;;;;;4.40;4.00;;;9.60;99.90;;;;;;5006689;28;20192;-66
2023/03/21 05:55:47;;;;;;;5.43;4.77;;;9.30;99.90;;;;;;5008307;28;20281;-67
2023/03/21 05:58:13;;;;;;;4.33;3.93;;;9.50;99.90;;;;;;5007599;28;20195;-67
2023/03/21 06:00:39;;;;;;;6.60;4.43;;;9.30;99.90;;;;;;5006981;28;20205;-65
2023/03/21 06:03:04;;;;;;;4.40;3.87;;;9.40;99.90;;;;;;5006348;28;20211;-65
2023/03/21 06:05:30;;;;;;;4.60;3.70;;;9.50;99.90;;;;;;5005538;28;20723;-66
2023/03/21 06:07:56;;;;;;;4.40;3.80;;;9.70;99.90;;;;;;5009727;28;20429;-65
2023/03/21 06:10:21;;;;;;;5.93;3.60;;;9.80;99.90;;;;;;5006301;28;20200;-65
2023/03/21 06:12:47;;;;;;;3.30;3.00;;;9.70;99.90;;;;;;5007761;28;20603;-66
2023/03/21 06:15:13;;;;;;;3.97;3.57;;;9.70;99.90;;;;;;5003234;28;21007;-65
2023/03/21 06:17:38;;;;;;;5.27;4.77;;;9.90;99.90;;;;;;5008555;28;20250;-64
2023/03/21 06:20:06;;;;;;;4.50;3.53;;;9.40;99.90;;;;;;5008510;28;20205;-65
2023/03/21 06:22:33;;;;;;;8.13;3.28;;;9.90;99.90;;;;;;5007215;28;20193;-66
2023/03/21 06:24:58;;;;;;;7.40;4.03;;;9.90;99.90;;;;;;5006805;28;20216;-65
2023/03/21 06:27:24;;;;;;;5.30;3.67;;;10.00;99.90;;;;;;5007842;28;20866;-65
2023/03/21 06:29:50;;;;;;;3.50;3.20;;;10.10;99.90;;;;;;5007581;28;20228;-65
2023/03/21 06:32:15;;;;;;;5.60;3.37;;;10.20;99.90;;;;;;5005219;28;20180;-70
2023/03/21 06:34:41;;;;;;;3.70;3.40;;;10.20;99.90;;;;;;5004011;28;20180;-68
2023/03/21 06:37:07;;;;;;;4.57;3.58;;;10.20;99.90;;;;;;5002458;28;20191;-70
2023/03/21 06:39:33;;;;;;;6.90;4.47;;;10.30;99.90;;;;;;4995644;28;20192;-66
2023/03/21 06:41:59;;;;;;;4.57;4.18;;;10.50;99.90;;;;;;4995043;28;20452;-66
2023/03/21 06:44:26;;;;;;;8.02;4.75;;;10.30;99.90;;;;;;5004334;28;20586;-66
2023/03/21 06:46:52;;;;;;;5.03;3.67;;;10.20;99.90;;;;;;5004728;28;20473;-67
2023/03/21 06:49:18;;;;;;;3.65;3.35;;;10.40;99.90;;;;;;5004380;28;20224;-67
2023/03/21 06:51:44;;;;;;;6.63;5.20;;;10.40;99.90;;;;;;5011472;28;20628;-65
2023/03/21 06:54:10;;;;;;;4.40;3.80;;;10.30;99.90;;;;;;5008818;28;20200;-67
2023/03/21 06:56:36;;;;;;;6.53;3.70;;;10.30;99.90;;;;;;5008580;28;20428;-70
2023/03/21 06:59:02;;;;;;;4.72;4.18;;;10.50;99.90;;;;;;5012738;28;20610;-69
2023/03/21 07:01:29;;;;;;;5.30;3.30;;;10.60;99.90;;;;;;5007524;28;20213;-69
2023/03/21 07:03:56;;;;;;;7.03;4.30;;;10.70;99.90;;;;;;5005015;28;20214;-66
2023/03/21 07:06:22;;;;;;;4.40;4.00;;;10.90;99.90;;;;;;5005066;28;20183;-68
2023/03/21 07:08:47;;;;;;;4.40;3.47;;;11.90;99.90;;;;;;5006003;28;20225;-67
2023/03/21 07:11:13;;;;;;;4.60;3.67;;;12.20;99.90;;;;;;5004137;28;20453;-70
2023/03/21 07:13:39;;;;;;;5.70;2.93;;;12.70;99.90;;;;;;5010556;28;20195;-68
2023/03/21 07:16:05;;;;;;;5.43;3.67;;;13.10;99.90;;;;;;5007356;28;20207;-68
2023/03/21 07:18:31;;;;;;;4.18;3.78;;;13.00;99.90;;;;;;5009462;28;20446;-68
2023/03/21 07:20:57;;;;;;;4.50;4.10;;;13.30;99.50;;;;;;5006181;28;20237;-68
2023/03/21 07:23:24;;;;;;;5.90;4.18;;;14.10;98.70;;;;;;5009452;28;20567;-67
2023/03/21 07:25:51;;;;;;;5.68;3.65;;;15.20;96.80;;;;;;5007056;28;20270;-67
2023/03/21 07:28:17;;;;;;;3.58;3.28;;;16.00;95.30;;;;;;5008842;28;20195;-67
2023/03/21 07:30:44;;;;;;;5.03;3.50;;;17.50;92.80;;;;;;5006822;28;20361;-70
2023/03/21 07:33:11;;;;;;;3.47;3.17;;;17.30;90.40;;;;;;5007458;28;20191;-69
2023/03/21 07:35:37;;;;;;;5.78;3.90;;;17.40;90.10;;;;;;5040688;28;20187;-69
2023/03/21 07:38:03;;;;;;;5.70;5.30;;;18.30;89.60;;;;;;5008066;28;20249;-69
2023/03/21 07:40:29;;;;;;;4.35;4.05;;;17.90;88.50;;;;;;5004649;28;20217;-69
2023/03/21 07:42:55;;;;;;;4.38;3.95;;;18.40;87.40;;;;;;5008595;28;20183;-67
2023/03/21 07:45:22;;;;;;;5.60;4.70;;;18.50;85.90;;;;;;5003735;28;20180;-68
2023/03/21 07:47:48;;;;;;;3.60;2.65;;;18.90;85.20;;;;;;5008563;28;20277;-68
2023/03/21 07:50:14;;;;;;;3.40;3.10;;;19.50;82.20;;;;;;5011330;28;20640;-67
2023/03/21 07:52:40;;;;;;;7.20;3.03;;;18.80;81.90;;;;;;5009582;28;20564;-67
2023/03/21 07:55:06;;;;;;;3.47;3.05;;;20.10;80.00;;;;;;5006357;28;20237;-68
2023/03/21 07:57:32;;;;;;;2.80;2.60;;;21.60;75.50;;;;;;5006405;28;20649;-67
2023/03/21 07:59:58;;;;;;;2.80;2.60;;;20.90;71.80;;;;;;5007214;28;21018;-68
2023/03/21 08:02:23;;;;;;;3.83;3.10;;;20.90;72.50;;;;;;5009407;28;20175;-68
2023/03/21 08:04:49;;;;;;;4.10;3.27;;;21.60;70.30;;;;;;5006028;28;20222;-67
2023/03/21 08:07:15;;;;;;;4.07;2.50;;;21.50;68.80;;;;;;5006686;28;20211;-68
2023/03/21 08:09:42;;;;;;;2.97;2.73;;;21.90;68.70;;;;;;5008795;28;20183;-64
2023/03/21 08:12:10;;;;;;;3.10;2.80;;;22.30;68.80;;;;;;5023459;28;20179;-70
2023/03/21 08:14:36;;;;;;;5.57;2.60;;;23.60;64.80;;;;;;5008392;28;21091;-70
2023/03/21 08:17:05;;;;;;;2.67;2.47;;;23.60;59.60;;;;;;5008155;28;20452;-72
2023/03/21 08:19:31;;;;;;;2.87;2.63;;;22.90;61.20;;;;;;5005652;28;20867;-70
2023/03/21 08:22:00;;;;;;;6.40;2.60;;;22.60;62.30;;;;;;5006256;28;20477;-71
2023/03/21 08:24:27;;;;;;;2.60;2.40;;;23.40;59.90;;;;;;5006441;28;20469;-72
2023/03/21 08:26:52;;;;;;;2.70;2.50;;;24.60;57.90;;;;;;5005026;28;20826;-70
2023/03/21 08:29:18;;;;;;;3.07;2.63;;;24.90;56.50;;;;;;5004307;28;20446;-66
2023/03/21 08:31:44;;;;;;;2.30;2.03;;;26.00;55.10;;;;;;5009779;28;20207;-67
2023/03/21 08:34:09;;;;;;;3.13;2.47;;;25.80;54.10;;;;;;5004916;28;20186;-68
2023/03/21 08:36:36;;;;;;;3.60;2.80;;;24.90;52.70;;;;;;5002759;28;20496;-65
2023/03/21 08:39:06;;;;;;;2.23;2.10;;;24.50;52.80;;;;;;5002386;28;20496;-69
2023/03/21 08:41:33;;;;;;;4.60;2.60;;;23.80;53.80;;;;;;5006944;28;20567;-71
2023/03/21 08:43:58;;;;;;;2.50;2.23;;;23.80;55.20;;;;;;5010066;28;20468;-69
2023/03/21 08:46:24;;;;;;;3.13;2.40;;;23.20;54.50;;;;;;5009633;28;20498;-69
2023/03/21 08:48:49;;;;;;;3.00;2.70;;;23.30;54.60;;;;;;5009185;28;20709;-69
2023/03/21 08:51:15;;;;;;;5.33;4.83;;;24.20;53.70;;;;;;5007496;28;20225;-67
2023/03/21 08:53:42;;;;;;;2.50;1.90;;;22.20;55.10;;;;;;5008599;28;20559;-67
2023/03/21 08:56:09;;;;;;;2.27;2.03;;;22.40;55.00;;;;;;5006607;28;20177;-65
2023/03/21 08:58:35;;;;;;;1.70;1.60;;;22.30;53.60;;;;;;5008273;28;20446;-65
2023/03/21 09:01:01;;;;;;;1.70;1.60;;;22.30;53.50;;;;;;5006329;28;20657;-65
2023/03/21 09:03:26;;;;;;;2.30;2.10;;;23.00;51.70;;;;;;5007225;28;20482;-66
2023/03/21 09:05:53;;;;;;;1.53;1.40;;;22.70;51.80;;;;;;5007017;28;20189;-66
2023/03/21 09:08:28;;;;;;;2.60;1.83;;;23.00;49.80;;;;;;5007474;28;20188;-64
2023/03/21 09:10:54;;;;;;;2.10;1.70;;;22.80;49.60;;;;;;5007315;28;20528;-66
2023/03/21 09:13:20;;;;;;;2.50;2.20;;;22.70;50.00;;;;;;5009855;28;20577;-67
2023/03/21 09:15:46;;;;;;;2.33;2.00;;;23.00;50.30;;;;;;5008674;28;20542;-67
2023/03/21 09:18:13;;;;;;;2.27;1.70;;;22.50;49.80;;;;;;5007591;28;21010;-66
2023/03/21 09:20:41;;;;;;;2.10;1.90;;;21.70;52.40;;;;;;5005580;28;20502;-66
2023/03/21 09:23:07;;;;;;;4.07;2.40;;;22.60;52.40;;;;;;5006741;28;20476;-67
2023/03/21 09:25:33;;;;;;;1.80;1.70;;;22.00;53.30;;;;;;5009414;28;20449;-67
2023/03/21 09:28:01;;;;;;;1.93;1.60;;;21.70;52.70;;;;;;5010840;28;20446;-67
2023/03/21 09:30:27;;;;;;;1.67;1.40;;;21.80;51.10;;;;;;5009613;28;20480;-67
2023/03/21 09:32:54;;;;;;;1.40;1.30;;;21.70;50.30;;;;;;5012095;28;20448;-66
2023/03/21 09:35:20;;;;;;;2.60;1.70;;;21.40;51.00;;;;;;5005339;28;20446;-64
2023/03/21 09:37:47;;;;;;;1.40;1.30;;;20.60;52.20;;;;;;5008237;28;20441;-65
2023/03/21 09:40:22;;;;;;;2.28;1.65;;;20.10;53.00;;;;;;5004297;28;20282;-65
2023/03/21 09:43:02;;;;;;;2.20;1.48;;;20.20;53.50;;;;;;5004941;28;20676;-65
2023/03/21 09:45:42;;;;;;;1.87;1.60;;;20.70;53.10;;;;;;5005322;28;20194;-65
2023/03/21 09:48:18;;;;;;;2.40;1.50;;;21.00;52.80;;;;;;5006315;28;20560;-66
2023/03/21 09:50:45;;;;;;;1.77;1.60;;;21.10;52.70;;;;;;5019893;28;21061;-66
2023/03/21 09:53:29;;;;;;;1.50;1.40;;;22.10;51.80;;;;;;5004898;28;20449;-64
2023/03/21 09:55:55;;;;;;;2.20;1.40;;;22.90;50.50;;;;;;5000543;28;20981;-69
2023/03/21 09:58:21;;;;;;;1.67;1.57;;;23.70;49.90;;;;;;5005236;28;20581;-67
2023/03/21 10:00:55;;;;;;;1.90;1.63;;;24.40;49.20;;;;;;5007277;28;20560;-68
2023/03/21 10:03:25;;;;;;;2.20;1.90;;;24.90;48.20;;;;;;5004272;28;20215;-70
2023/03/21 10:05:57;;;;;;;2.00;1.90;;;24.20;48.60;;;;;;5002139;28;20450;-65
2023/03/21 10:08:35;;;;;;;2.03;1.60;;;23.80;49.60;;;;;;5004766;28;20465;-65
2023/03/21 10:11:17;;;;;;;3.00;2.00;;;23.90;49.60;;;;;;5004300;28;20565;-65
2023/03/21 10:13:52;;;;;;;2.63;1.80;;;23.80;50.40;;;;;;5004502;28;20529;-65
2023/03/21 10:16:29;;;;;;;3.50;2.43;;;23.30;51.60;;;;;;5005060;28;20955;-63
2023/03/21 10:18:56;;;;;;;3.13;1.60;;;22.20;51.90;;;;;;5006571;28;20596;-66
2023/03/21 10:21:25;;;;;;;2.30;1.90;;;21.90;52.60;;;;;;5004644;28;20831;-64
2023/03/21 10:23:53;;;;;;;2.00;1.90;;;22.40;53.20;;;;;;5004158;28;20470;-66
2023/03/21 10:26:22;;;;;;;1.77;1.63;;;22.00;53.10;;;;;;5001928;28;20442;-66
2023/03/21 10:28:48;;;;;;;1.70;1.40;;;22.50;53.40;;;;;;5005757;28;20462;-64
2023/03/21 10:31:17;;;;;;;2.70;2.00;;;23.00;52.80;;;;;;5006007;28;21087;-62
2023/03/21 10:33:46;;;;;;;2.43;1.90;;;23.90;51.40;;;;;;5004842;28;20983;-62
2023/03/21 10:36:24;;;;;;;2.43;2.10;;;24.60;50.70;;;;;;5007957;28;21005;-62
2023/03/21 10:38:59;;;;;;;1.70;1.53;;;24.00;49.70;;;;;;5002755;28;20473;-62
2023/03/21 10:41:24;;;;;;;1.67;1.57;;;23.10;50.70;;;;;;5001838;28;20966;-62
2023/03/21 10:44:13;;;;;;;4.03;2.20;;;23.10;51.60;;;;;;5006186;28;20486;-63
2023/03/21 10:46:52;;;;;;;2.00;1.83;;;22.90;51.40;;;;;;5007641;28;20194;-63
2023/03/21 10:49:20;;;;;;;1.60;1.50;;;22.20;51.80;;;;;;5008187;28;20511;-62
2023/03/21 10:51:48;;;;;;;1.47;1.37;;;22.20;52.00;;;;;;5009677;28;20461;-62
2023/03/21 10:54:17;;;;;;;3.00;1.87;;;22.00;52.30;;;;;;5005892;28;20447;-66
2023/03/21 10:57:08;;;;;;;1.80;1.50;;;21.50;52.30;;;;;;5006305;28;20535;-66
2023/03/21 10:59:43;;;;;;;1.77;1.67;;;21.20;52.80;;;;;;5007594;28;20500;-65
2023/03/21 11:02:36;;;;;;;1.80;1.40;;;21.20;53.10;;;;;;5009641;28;20978;-64
2023/03/21 11:05:38;;;;;;;1.60;1.50;;;21.00;51.70;;;;;;5008374;28;20547;-64
2023/03/21 11:08:11;;;;;;;3.60;1.10;;;20.90;52.80;;;;;;4991246;28;20551;-64
2023/03/21 11:10:50;;;;;;;3.23;1.53;;;21.00;52.80;;;;;;5011018;28;21092;-63
2023/03/21 11:13:24;;;;;;;1.67;1.30;;;21.20;53.10;;;;;;5008411;28;21000;-64
2023/03/21 11:15:54;;;;;;;1.50;1.30;;;21.10;53.70;;;;;;5004884;28;20487;-65
2023/03/21 11:18:31;;;;;;;2.33;1.40;;;21.00;53.90;;;;;;5009918;28;20455;-65
2023/03/21 11:21:02;;;;;;;2.27;1.30;;;20.80;54.50;;;;;;5004488;28;20669;-65
2023/03/21 11:23:30;;;;;;;1.35;1.25;;;20.70;54.60;;;;;;5011331;28;20512;-65
2023/03/21 11:25:59;;;;;;;1.37;1.27;;;20.40;54.50;;;;;;5004863;28;20206;-66
2023/03/21 11:28:32;;;;;;;3.47;1.30;;;20.40;54.80;;;;;;5011816;28;20531;-64
2023/03/21 11:31:00;;;;;;;1.52;1.30;;;20.20;54.50;;;;;;5011586;28;20622;-65
2023/03/21 11:33:39;;;;;;;1.25;1.08;;;19.80;54.60;;;;;;5012140;28;20186;-64
2023/03/21 11:36:17;;;;;;;1.23;1.10;;;19.90;55.10;;;;;;5008604;28;20190;-65
2023/03/21 11:38:42;;;;;;;1.20;1.10;;;20.10;53.80;;;;;;5006670;28;20268;-65
2023/03/21 11:41:08;;;;;;;1.47;0.90;;;20.20;53.30;;;;;;5008554;28;20617;-65
2023/03/21 11:43:38;;;;;;;2.10;1.87;;;20.00;53.40;;;;;;5011136;28;20623;-64
2023/03/21 11:46:04;;;;;;;1.98;1.40;;;19.80;53.80;;;;;;5009944;28;20187;-65
2023/03/21 11:48:38;;;;;;;1.23;1.00;;;20.00;54.10;;;;;;5000411;28;20691;-68
2023/03/21 11:51:34;;;;;;;3.08;1.60;;;19.80;53.90;;;;;;5010338;28;20206;-70
2023/03/21 11:54:27;;;;;;;4.35;1.40;;;19.50;53.40;;;;;;5005537;28;20281;-68
2023/03/21 11:57:06;;;;;;;1.20;1.10;;;19.50;53.10;;;;;;5038618;28;20214;-68
2023/03/21 11:59:37;;;;;;;0.80;0.80;;;19.80;52.70;;;;;;5011183;28;20214;-69
2023/03/21 12:02:21;;;;;;;1.10;1.00;;;19.90;52.40;;;;;;5011939;28;20289;-69
2023/03/21 12:04:55;;;;;;;2.55;1.30;;;19.40;52.60;;;;;;5011988;28;20218;-70
2023/03/21 12:07:41;;;;;;;1.90;1.27;;;19.50;53.30;;;;;;5016120;28;20178;-66
2023/03/21 12:10:25;;;;;;;3.67;1.98;;;19.40;53.20;;;;;;5002243;28;20283;-65
2023/03/21 12:13:09;;;;;;;1.40;1.30;;;19.30;53.70;;;;;;5009851;28;20231;-65
2023/03/21 12:16:01;;;;;;;1.45;1.30;;;19.10;53.80;;;;;;5007749;28;20555;-63
2023/03/21 12:19:00;;;;;;;1.88;1.15;;;19.10;54.40;;;;;;5006837;28;20271;-63
2023/03/21 12:21:37;;;;;;;4.88;1.73;;;19.00;54.70;;;;;;5007891;28;20245;-65
2023/03/21 12:24:19;;;;;;;4.43;3.15;;;19.20;54.50;;;;;;5006622;28;20672;-64
2023/03/21 12:27:07;;;;;;;1.50;1.20;;;19.00;54.60;;;;;;5005296;28;20187;-67
2023/03/21 12:29:50;;;;;;;8.43;1.55;;;19.40;54.60;;;;;;5008112;28;20191;-67
2023/03/21 12:32:32;;;;;;;1.65;1.20;;;19.30;53.50;;;;;;5006100;28;20782;-67
2023/03/21 12:35:44;;;;;;;2.10;1.90;;;19.00;55.20;;;;;;5007184;28;20191;-66
2023/03/21 12:38:16;;;;;;;2.35;1.75;;;19.20;55.20;;;;;;4996572;28;20628;-66
2023/03/21 12:41:01;;;;;;;3.42;2.70;;;18.70;54.50;;;;;;5020137;28;20237;-66
2023/03/21 12:43:49;;;;;;;1.58;1.48;;;18.90;55.40;;;;;;5009739;28;20211;-65
2023/03/21 12:46:44;;;;;;;1.83;1.65;;;19.20;55.80;;;;;;5008958;28;20184;-63
2023/03/21 12:49:19;;;;;;;1.77;1.40;;;19.30;54.00;;;;;;5006760;28;20620;-63
2023/03/21 12:51:53;;;;;;;2.35;1.70;;;19.30;53.70;;;;;;5005021;28;20206;-64
2023/03/21 12:54:28;;;;;;;3.28;1.52;;;19.40;54.10;;;;;;5006383;28;20198;-64
2023/03/21 12:57:03;;;;;;;4.28;1.60;;;19.70;54.90;;;;;;5006340;28;20178;-63
2023/03/21 12:59:37;;;;;;;3.53;1.67;;;19.70;54.00;;;;;;5006125;28;20540;-64
2023/03/21 13:02:35;;;;;;;2.22;1.50;;;19.50;53.70;;;;;;5009403;28;20197;-62
2023/03/21 13:05:27;;;;;;;2.65;1.52;;;19.50;53.60;;;;;;5006165;28;20680;-64